createdAt,value
2022-09-12T00:00:31.633Z,99.90
2022-09-12T00:04:36.151Z,99.90
2022-09-12T00:08:38.154Z,99.90
2022-09-12T00:12:40.230Z,99.90
2022-09-12T00:16:42.664Z,99.90
2022-09-12T00:20:47.791Z,99.90
2022-09-12T00:24:49.726Z,99.90
2022-09-12T00:28:51.968Z,99.90
2022-09-12T00:32:53.915Z,99.90
2022-09-12T00:36:58.465Z,99.90
2022-09-12T00:41:00.444Z,99.90
2022-09-12T00:45:02.541Z,99.90
2022-09-12T00:49:11.125Z,99.90
2022-09-12T00:53:16.043Z,99.90
2022-09-12T00:57:19.224Z,99.90
2022-09-12T01:01:21.424Z,99.90
2022-09-12T01:05:24.969Z,99.90
2022-09-12T01:09:29.489Z,99.90
2022-09-12T01:13:33.877Z,99.90
2022-09-12T01:17:48.852Z,99.90
2022-09-12T01:22:03.077Z,99.90
2022-09-12T01:26:28.040Z,99.90
2022-09-12T01:30:46.142Z,99.90
2022-09-12T01:34:53.843Z,99.90
2022-09-12T01:39:01.221Z,99.90
2022-09-12T01:43:12.175Z,99.90
2022-09-12T01:47:19.672Z,99.90
2022-09-12T01:51:25.071Z,99.90
2022-09-12T01:55:31.832Z,99.90
2022-09-12T01:59:38.512Z,99.90
2022-09-12T02:03:48.318Z,99.90
2022-09-12T02:07:53.754Z,99.90
2022-09-12T02:12:00.143Z,99.90
2022-09-12T02:16:07.877Z,99.90
2022-09-12T02:20:43.942Z,99.90
2022-09-12T02:24:43.408Z,99.90
2022-09-12T02:28:45.599Z,99.90
2022-09-12T02:32:58.836Z,99.90
2022-09-12T02:37:12.756Z,99.90
2022-09-12T02:41:18.726Z,99.90
2022-09-12T02:45:21.294Z,99.90
2022-09-12T02:49:23.438Z,99.90
2022-09-12T02:53:28.537Z,99.90
2022-09-12T02:57:31.067Z,99.90
2022-09-12T03:01:57.559Z,99.90
2022-09-12T03:06:02.057Z,99.90
2022-09-12T03:10:14.414Z,99.90
2022-09-12T03:14:31.747Z,99.90
2022-09-12T03:18:47.823Z,99.90
2022-09-12T03:22:54.864Z,99.90
2022-09-12T03:27:05.278Z,99.90
2022-09-12T03:31:13.673Z,99.90
2022-09-12T03:35:20.886Z,99.90
2022-09-12T03:39:25.148Z,99.90
2022-09-12T03:43:29.693Z,99.90
2022-09-12T03:47:32.029Z,99.90
2022-09-12T03:51:34.026Z,99.90
2022-09-12T03:55:36.041Z,99.90
2022-09-12T03:59:40.559Z,99.90
2022-09-12T04:03:43.441Z,99.90
2022-09-12T04:07:45.373Z,99.90
2022-09-12T04:11:47.320Z,99.90
2022-09-12T04:15:59.739Z,99.90
2022-09-12T04:20:02.264Z,99.90
2022-09-12T04:24:04.509Z,99.90
2022-09-12T04:28:06.473Z,99.90
2022-09-12T04:32:11.028Z,99.90
2022-09-12T04:36:15.265Z,99.90
2022-09-12T04:40:17.423Z,99.90
2022-09-12T04:44:19.372Z,99.90
2022-09-12T04:48:23.916Z,99.90
2022-09-12T04:52:25.883Z,99.90
2022-09-12T04:56:28.659Z,99.90
2022-09-12T05:00:30.650Z,99.90
2022-09-12T05:04:37.573Z,99.90
2022-09-12T05:08:39.694Z,99.90
2022-09-12T05:12:41.618Z,99.90
2022-09-12T05:16:48.553Z,99.90
2022-09-12T05:20:54.269Z,99.90
2022-09-12T05:24:56.255Z,99.90
2022-09-12T05:28:58.210Z,99.90
2022-09-12T05:33:00.195Z,99.90
2022-09-12T05:37:04.873Z,99.90
2022-09-12T05:41:11.443Z,99.90
2022-09-12T05:45:16.657Z,99.90
2022-09-12T05:49:18.584Z,99.90
2022-09-12T05:53:23.180Z,99.90
2022-09-12T05:57:25.157Z,99.90
2022-09-12T06:01:28.225Z,99.90
2022-09-12T06:05:30.214Z,99.90
2022-09-12T06:09:34.771Z,99.90
2022-09-12T06:13:38.944Z,99.90
2022-09-12T06:17:40.894Z,99.90
2022-09-12T06:21:43.279Z,99.90
2022-09-12T06:25:50.964Z,99.90
2022-09-12T06:29:52.909Z,99.90
2022-09-12T06:33:56.512Z,99.90
2022-09-12T06:37:58.499Z,99.90
2022-09-12T06:42:03.064Z,99.90
2022-09-12T06:46:05.547Z,99.90
2022-09-12T06:50:08.671Z,99.90
2022-09-12T06:54:13.598Z,99.90
2022-09-12T06:58:20.890Z,99.90
2022-09-12T07:02:22.865Z,99.90
2022-09-12T07:06:27.214Z,99.90
2022-09-12T07:10:29.413Z,99.90
2022-09-12T07:14:33.944Z,99.90
2022-09-12T07:18:36.596Z,99.90
2022-09-12T07:22:38.543Z,99.90
2022-09-12T07:26:41.082Z,99.90
2022-09-12T07:30:45.637Z,99.90
2022-09-12T07:34:47.612Z,99.90
2022-09-12T07:38:57.216Z,99.90
2022-09-12T07:42:59.589Z,99.90
2022-09-12T07:47:04.782Z,99.90
2022-09-12T07:51:09.053Z,99.90
2022-09-12T07:55:11.010Z,99.90
2022-09-12T07:59:13.003Z,99.90
2022-09-12T08:03:18.208Z,99.90
2022-09-12T08:07:20.222Z,99.90
2022-09-12T08:11:23.525Z,99.90
2022-09-12T08:15:25.767Z,99.90
2022-09-12T08:19:30.274Z,99.90
2022-09-12T08:23:33.054Z,99.90
2022-09-12T08:27:35.025Z,99.90
2022-09-12T08:31:36.970Z,99.90
2022-09-12T08:35:41.596Z,99.90
2022-09-12T08:39:43.579Z,99.90
2022-09-12T08:44:11.605Z,99.90
2022-09-12T08:48:14.170Z,99.90
2022-09-12T08:52:21.902Z,99.90
2022-09-12T08:56:31.433Z,99.90
2022-09-12T09:00:46.568Z,99.90
2022-09-12T09:04:51.732Z,99.90
2022-09-12T09:09:06.728Z,99.90
2022-09-12T09:13:17.319Z,99.90
2022-09-12T09:17:22.005Z,99.90
2022-09-12T09:21:29.718Z,99.90
2022-09-12T09:25:44.210Z,99.90
2022-09-12T09:29:51.047Z,99.90
2022-09-12T09:33:54.330Z,99.90
2022-09-12T09:38:02.135Z,99.50
2022-09-12T09:42:18.124Z,98.10
2022-09-12T09:46:20.159Z,97.10
2022-09-12T09:50:22.535Z,96.60
2022-09-12T09:54:29.637Z,96.20
2022-09-12T09:58:35.965Z,97.60
2022-09-12T10:02:37.981Z,96.60
2022-09-12T10:06:40.330Z,97.20
2022-09-12T10:10:53.672Z,96.80
